Flight Track Log - Related Links

Times and Time Zones

All times are in EDT time to prevent confusion due to time zone crossing. See the AWI3977 flight status page for this flight to view local times or setup timezone preferences in your user account.

Time Position Orientation Groundspeed Altitude Reporting Facility
EDT Latitude Longitude Course Direction KTS MPH feet Rate Location/Type
Mon 05:43:15 PM 45.4407 -73.7409 47° Northeast  Level FlightAware Approximate
Mon 05:44:15 PM 45.3528 -73.8148 38° Northeast  Level FlightAware Approximate
Mon 05:44:51 PM 45.5000 -73.6500 90° East 190 219 3,600  Level Montreal Center
Mon 05:45:51 PM 45.5000 -73.5833 161° South 240 276 4,900 1,450 Climbing Montreal Center
Mon 05:46:51 PM 45.4333 -73.5500 221° Southwest 260 299 6,500 2,000 Climbing Montreal Center
Mon 05:47:51 PM 45.3667 -73.6333 208° Southwest 270 311 8,900 2,450 Climbing Montreal Center
Mon 05:48:51 PM 45.3000 -73.6833 203° Southwest 280 322 11,400 2,700 Climbing Montreal Center
Mon 05:49:51 PM 45.2167 -73.7333 208° Southwest 290 334 14,300 2,550 Climbing Montreal Center
Mon 05:50:51 PM 45.1500 -73.7833 209° Southwest 300 345 16,500 2,050 Climbing Montreal Center
Mon 05:51:51 PM 45.0667 -73.8500 210° Southwest 310 357 18,400 1,450 Climbing Montreal Center
Mon 05:52:51 PM 44.9833 -73.9167 210° Southwest 320 368 19,400 1,450 Climbing Montreal Center
Mon 05:53:51 PM 44.9000 -73.9833 210° Southwest 340 391 21,300 1,650 Climbing Montreal Center
Mon 05:54:51 PM 44.8167 -74.0500 203° Southwest 350 403 22,700 1,300 Climbing Montreal Center
Mon 05:55:51 PM 44.7333 -74.1000 205° Southwest 350 403 23,900 131 Climbing Montreal Center
Mon 06:03:15 PM 43.9202 -73.9970 209° Southwest  Level FlightAware Approximate
Mon 06:04:15 PM 43.8106 -73.9768 209° Southwest  Level FlightAware Approximate
Mon 06:05:15 PM 43.7019 -73.9486 210° Southwest  Level FlightAware Approximate
Mon 06:06:15 PM 43.5931 -73.9772 210° Southwest  Level FlightAware Approximate
Mon 06:07:15 PM 43.4908 -73.9248 211° Southwest  Level FlightAware Approximate
Mon 06:08:15 PM 43.3817 -73.8996 212° Southwest  Level FlightAware Approximate
Mon 06:09:15 PM 43.2722 -73.8781 213° Southwest  Level FlightAware Approximate
Mon 06:10:15 PM 43.1673 -73.9263 213° Southwest  Level FlightAware Approximate
Mon 06:11:15 PM 43.0623 -73.9743 213° Southwest  Level FlightAware Approximate
Mon 06:12:15 PM 42.9582 -74.0259 213° Southwest  Level FlightAware Approximate
Mon 06:13:15 PM 42.8560 -74.0838 214° Southwest  Level FlightAware Approximate
Mon 06:14:15 PM 42.7537 -74.1416 214° Southwest  Level FlightAware Approximate
Mon 06:15:15 PM 42.6558 -74.2118 214° Southwest  Level FlightAware Approximate
Mon 06:16:15 PM 42.5586 -74.2837 214° Southwest  Level FlightAware Approximate
Mon 06:17:15 PM 42.4641 -74.3619 214° Southwest  Level FlightAware Approximate
Mon 06:18:15 PM 42.3696 -74.4399 214° Southwest  Level FlightAware Approximate
Mon 06:19:15 PM 42.2750 -74.5177 214° Southwest  Level FlightAware Approximate
Mon 06:20:15 PM 42.1823 -74.5992 214° Southwest  Level FlightAware Approximate
Mon 06:21:15 PM 42.0895 -74.6806 214° Southwest  Level FlightAware Approximate
Mon 06:22:15 PM 41.9972 -74.7630 214° Southwest  Level FlightAware Approximate
Mon 06:23:15 PM 41.9049 -74.8451 214° Southwest  Level FlightAware Approximate
Mon 06:24:15 PM 41.8126 -74.9270 214° Southwest  Level FlightAware Approximate
Mon 06:25:15 PM 41.7202 -75.0087 214° Southwest  Level FlightAware Approximate
Mon 06:26:15 PM 41.6284 -75.0915 214° Southwest  Level FlightAware Approximate
Mon 06:27:15 PM 41.5365 -75.1740 214° Southwest  Level FlightAware Approximate
Mon 06:28:15 PM 41.4445 -75.2562 213° Southwest  Level FlightAware Approximate
Mon 06:29:15 PM 41.3525 -75.3382 213° Southwest  Level FlightAware Approximate
Mon 06:30:15 PM 41.2620 -75.4229 213° Southwest  Level FlightAware Approximate
Mon 06:31:15 PM 41.1713 -75.5074 213° Southwest  Level FlightAware Approximate
Mon 06:32:15 PM 41.0806 -75.5916 213° Southwest  Level FlightAware Approximate
Mon 06:33:15 PM 40.9898 -75.6756 213° Southwest  Level FlightAware Approximate
Mon 06:34:15 PM 40.8999 -75.7610 213° Southwest  Level FlightAware Approximate
Mon 06:35:15 PM 40.8100 -75.8462 213° Southwest  Level FlightAware Approximate
Mon 06:36:15 PM 40.7199 -75.9312 212° Southwest  Level FlightAware Approximate
Mon 06:37:15 PM 40.6321 -76.0201 212° Southwest  Level FlightAware Approximate
Mon 06:38:15 PM 40.5443 -76.1087 212° Southwest  Level FlightAware Approximate
Mon 06:39:15 PM 40.4563 -76.1971 212° Southwest  Level FlightAware Approximate
Mon 06:40:15 PM 40.3683 -76.2853 211° Southwest  Level FlightAware Approximate
Mon 06:41:15 PM 40.2803 -76.3733 211° Southwest  Level FlightAware Approximate
Mon 06:42:15 PM 40.1921 -76.4610 211° Southwest  Level FlightAware Approximate
Mon 06:43:15 PM 40.1039 -76.5485 210° Southwest  Level FlightAware Approximate
Mon 06:44:15 PM 40.0153 -76.6351 210° Southwest  Level FlightAware Approximate
Mon 06:45:15 PM 39.9266 -76.7215 209° Southwest  Level FlightAware Approximate
Mon 06:46:15 PM 39.8376 -76.8073 209° Southwest  Level FlightAware Approximate
Mon 06:47:15 PM 39.7486 -76.8929 208° Southwest  Level FlightAware Approximate
Mon 06:48:15 PM 39.6596 -76.9783 208° Southwest  Level FlightAware Approximate
Mon 06:49:15 PM 39.5704 -77.0635 207° Southwest  Level FlightAware Approximate
Mon 06:50:15 PM 39.4812 -77.1485 206° Southwest  Level FlightAware Approximate
Mon 06:51:15 PM 39.3920 -77.2333 205° Southwest  Level FlightAware Approximate
Mon 06:52:15 PM 39.3026 -77.3177 204° Southwest  Level FlightAware Approximate
Mon 06:53:15 PM 39.2132 -77.4019 202° Southwest  Level FlightAware Approximate
Mon 06:54:15 PM 39.1237 -77.4859 201° Southwest  Level FlightAware Approximate
Mon 06:55:15 PM 39.0340 -77.5695 199° South  Level FlightAware Approximate
Mon 06:56:15 PM 38.9443 -77.6529 196° South  Level FlightAware Approximate
Mon 06:57:15 PM 38.8546 -77.7363 192° South  Level FlightAware Approximate
Mon 06:58:15 PM 38.7649 -77.8195 187° South  Level FlightAware Approximate
Mon 06:59:15 PM 38.6752 -77.9026 179° South  Level FlightAware Approximate
Mon 07:00:15 PM 38.5854 -77.9854 166° South  Level FlightAware Approximate
Mon 07:01:15 PM 38.4955 -78.0680 147° Southeast  Level FlightAware Approximate
Mon 07:02:15 PM 38.4054 -78.1501 121° Southeast  Level FlightAware Approximate
Mon 07:03:15 PM 38.3153 -78.2321 97° East  Level FlightAware Approximate
Mon 07:04:15 PM 38.2251 -78.3138 80° East  Level FlightAware Approximate
Mon 07:05:15 PM 38.1352 -78.3958 69° East  Level FlightAware Approximate
Mon 07:05:41 PM 38.2825 -77.8903 222° Southwest 396 456 32,000  Level Washington Center
Mon 07:09:43 PM 37.9686 -78.2469 221° Southwest 382 440 32,000  Level Washington Center
Mon 07:11:42 PM 37.8083 -78.4225 220° Southwest 382 440 32,000  Level Washington Center
Mon 07:12:43 PM 37.7183 -78.5192 221° Southwest 382 440 32,000  Level Washington Center
Mon 07:13:43 PM 37.6392 -78.6050 221° Southwest 382 440 32,000  Level Washington Center
Mon 07:14:41 PM 37.5575 -78.6936 221° Southwest 387 445 32,000  Level Washington Center
Mon 07:15:42 PM 37.4758 -78.7819 220° Southwest 387 445 32,000  Level Washington Center
Mon 07:16:41 PM 37.3944 -78.8672 220° Southwest 387 445 32,000  Level Washington Center
Mon 07:17:41 PM 37.3214 -78.9450 220° Southwest 387 445 32,000  Level Washington Center
Mon 07:18:42 PM 37.2394 -79.0328 220° Southwest 387 445 32,000  Level Washington Center
Mon 07:19:43 PM 37.1578 -79.1178 220° Southwest 387 445 32,000  Level Washington Center
Mon 07:20:43 PM 37.0758 -79.2053 220° Southwest 387 445 32,000  Level Washington Center
Mon 07:21:41 PM 36.9919 -79.2922 221° Southwest 387 445 32,000  Level Washington Center
Mon 07:22:42 PM 36.9033 -79.3894 220° Southwest 387 445 32,000  Level Washington Center
Mon 07:23:43 PM 36.8233 -79.4736 220° Southwest 387 445 32,000  Level Washington Center
Mon 07:24:41 PM 36.7392 -79.5628 220° Southwest 393 452 32,000 -1,494 Level Washington Center
Mon 07:27:40 PM 36.5025 -79.8056 222° Southwest 381 438 26,100 -1,983 Descending Atlanta Center
Mon 07:28:40 PM 36.4303 -79.8869 219° Southwest 371 427 24,100 -1,950 Descending Atlanta Center
Mon 07:29:40 PM 36.3575 -79.9603 217° Southwest 344 396 22,200 -1,050 Descending Atlanta Center
Mon 07:30:40 PM 36.2847 -80.0283 214° Southwest 333 383 22,000 -100 Descending Atlanta Center
Mon 07:31:40 PM 36.1994 -80.0994 216° Southwest 333 383 22,000 -500 Level Atlanta Center
Mon 07:32:40 PM 36.1264 -80.1647 213° Southwest 338 389 21,000 -1,500 Descending Atlanta Center
Mon 07:33:40 PM 36.0492 -80.2275 216° Southwest 333 383 19,000 -1,900 Descending Atlanta Center
Mon 07:34:40 PM 35.9822 -80.2872 217° Southwest 321 369 17,200 -1,900 Descending Atlanta Center
Mon 07:35:40 PM 35.9153 -80.3492 214° Southwest 315 362 15,200 -1,862 Descending Atlanta Center
Mon 07:36:36 PM 35.8542 -80.4006 216° Southwest 287 330 13,600 -1,568 Descending Atlanta Center
Mon 07:37:31 PM 35.7992 -80.4492 214° Southwest 277 319 12,300 -1,293 Descending Atlanta Center
Mon 07:38:32 PM 35.7319 -80.5058 213° Southwest 272 313 11,100 -787 Descending Atlanta Center
Mon 07:39:33 PM 35.6708 -80.5544 207° Southwest 268 308 10,700 -893 Descending Atlanta Center
Mon 07:40:33 PM 35.6053 -80.5956 209° Southwest 267 307 9,300 -1,323 Descending Atlanta Center
Mon 07:41:40 PM 35.5336 -80.6447 209° Southwest 269 310 7,900 -1,279 Descending Atlanta Center
Mon 07:42:35 PM 35.4742 -80.6853 208° Southwest 269 310 6,700 -1,300 Descending Atlanta Center
Mon 07:43:40 PM 35.4128 -80.7261 210° Southwest 258 297 5,300 -1,296 Descending Atlanta Center
Mon 07:44:40 PM 35.3514 -80.7692 210° Southwest 258 297 4,000 -1,300 Descending Atlanta Center

Login

Don't have an account? Register now (free) for customized features, flight alerts, and more!